Palchem 1 — 9HA2097 — position and weather

sailwx.info

Track history (hours):
 
Tides and Currents Weather Stations Pressure Air Temp Water Temp Dewpoint Dewpoint Depression Visibility Wind Speed Wind Dir Waves Ship Positions

Palchem 1

Last reported at 2014-Dec-18 07:06 UTC. Time now 2014-Dec-18 08:30 UTC.
Position N 46°31' E 030°58'.

Length 143 m; draft 8.9 m.

Type: Ship (hazmat cat D). MMSI: 249955000.

Date/timePositionNaut miles runAvg speedWind from/ knotsBaromVisibWave heightAir tempDewpointWater temp
2014-Dec-18 07:06N 46°31' E 030°58'0 0.0
2014-Dec-18 06:28N 46°31' E 030°58'0 0.0
2014-Dec-18 05:33N 46°31' E 030°58'0 0.0
2014-Dec-17 00:04N 46°31' E 030°58'0 0.1
2014-Dec-16 23:10N 46°31' E 030°58'0 0.0
2014-Dec-16 04:05N 46°31' E 030°58'0 0.0
2014-Dec-16 02:33N 46°31' E 030°58'0 0.0
2014-Dec-15 20:31N 46°31' E 030°58'2 2.4
2014-Dec-15 19:33N 46°28' E 030°57'1111.5
2014-Dec-15 18:33N 46°17' E 030°58'31011.5
2014-Dec-14 15:33N 41°17' E 029°11'  
2014-Dec-12 00:24N 38°18' E 024°52'1010.1
2014-Dec-11 23:22N 38°09' E 024°46'18 9.7
2014-Dec-11 21:33N 37°54' E 024°34'10 9.4
2014-Dec-11 20:33N 37°48' E 024°25'12 9.9
2014-Dec-11 19:21N 37°40' E 024°13'810.0
2014-Dec-11 18:33N 37°36' E 024°05'1111.1
2014-Dec-11 17:33N 37°37' E 023°51'10 9.8
2014-Dec-11 16:33N 37°43' E 023°41'1211.6
2014-Dec-11 15:33N 37°54' E 023°37'8 7.8
2014-Dec-11 14:33N 38°01' E 023°32'1 1.3
2014-Dec-11 13:33N 38°02' E 023°31'0 0.0
2014-Dec-11 12:33N 38°02' E 023°31'0 0.0
2014-Dec-10 08:17N 38°02' E 023°31'2 2.2
2014-Dec-10 07:33N 38°01' E 023°32'0 0.2
2014-Dec-10 06:33N 38°01' E 023°32'0 0.0
2014-Dec-10 05:33N 38°01' E 023°32'0 0.0
2014-Dec-10 04:33N 38°01' E 023°32'0 0.0
2014-Dec-10 03:26N 38°01' E 023°32'0 0.0
2014-Dec-10 02:29N 38°01' E 023°32'0 0.0
2014-Dec-10 01:29N 38°01' E 023°32'0 0.0
2014-Dec-10 00:32N 38°01' E 023°32'0 0.0
2014-Dec-09 23:32N 38°01' E 023°32'0 0.0
2014-Dec-09 22:29N 38°01' E 023°32'0 0.0
2014-Dec-09 21:32N 38°01' E 023°32'0 0.0
2014-Dec-09 20:32N 38°01' E 023°32'0 0.0
2014-Dec-09 19:32N 38°01' E 023°32'0 0.0
2014-Dec-09 18:32N 38°01' E 023°32'0 0.0
2014-Dec-09 17:32N 38°01' E 023°32'0 0.0
2014-Dec-09 16:32N 38°01' E 023°32'0 0.0
2014-Dec-09 15:32N 38°01' E 023°32'0 0.0
2014-Dec-09 14:32N 38°01' E 023°32'0 0.0
2014-Dec-09 13:32N 38°01' E 023°32'0 0.0
2014-Dec-09 12:32N 38°01' E 023°32'0 0.0
2014-Dec-09 11:32N 38°01' E 023°32'0 0.0
2014-Dec-09 10:29N 38°01' E 023°32'0 0.0
2014-Dec-09 09:29N 38°01' E 023°32'0 0.0
2014-Dec-09 08:29N 38°01' E 023°32'0 0.0
2014-Dec-09 07:32N 38°01' E 023°32'0 0.0
2014-Dec-09 06:32N 38°01' E 023°32'0 0.0
2014-Dec-09 05:32N 38°01' E 023°32'0 0.0
2014-Dec-09 04:32N 38°01' E 023°32'0 0.0
2014-Dec-09 03:32N 38°01' E 023°32'0 0.0
2014-Dec-09 02:32N 38°01' E 023°32'0 0.0
2014-Dec-09 01:32N 38°01' E 023°32'0 0.0
2014-Dec-09 00:32N 38°01' E 023°32'0 0.0
2014-Dec-08 23:29N 38°01' E 023°32'0 0.0
2014-Dec-08 22:32N 38°01' E 023°32'0 0.0
2014-Dec-08 21:32N 38°01' E 023°32'0 0.0
2014-Dec-08 20:26N 38°01' E 023°32'0 0.0
2014-Dec-08 19:32N 38°01' E 023°32'0 0.0
2014-Dec-08 18:32N 38°01' E 023°32'0 0.0
2014-Dec-08 17:29N 38°01' E 023°32'0 0.0
2014-Dec-08 16:32N 38°01' E 023°32'0 0.0
2014-Dec-08 15:32N 38°01' E 023°32'0 0.0
2014-Dec-08 14:26N 38°01' E 023°32'0 0.0
2014-Dec-08 13:32N 38°01' E 023°32'0 0.0
2014-Dec-08 12:32N 38°01' E 023°32'0 0.0
2014-Dec-08 11:32N 38°01' E 023°32'0 0.0
2014-Dec-08 10:32N 38°01' E 023°32'0 0.0
2014-Dec-08 09:23N 38°01' E 023°32'0 0.0
2014-Dec-08 08:26N 38°01' E 023°32'0 0.0
2014-Dec-08 07:32N 38°01' E 023°32'  
Track history (hours):
 
Tides and Currents Weather Stations Pressure Air Temp Water Temp Dewpoint Dewpoint Depression Visibility Wind Speed Wind Dir Waves Ship Positions

Palchem 1

Last reported at 2014-Dec-18 07:06 UTC. Time now 2014-Dec-18 08:30 UTC.
Position N 46°31' E 030°58'.

Length 143 m; draft 8.9 m.

Type: Ship (hazmat cat D). MMSI: 249955000.

Date/timePositionNaut miles runAvg speedWind from/ knotsBaromVisibWave heightAir tempDewpointWater temp
2014-Dec-18 07:06N 46°31' E 030°58'0 0.0
2014-Dec-18 06:28N 46°31' E 030°58'0 0.0
2014-Dec-18 05:33N 46°31' E 030°58'0 0.0
2014-Dec-17 00:04N 46°31' E 030°58'0 0.1
2014-Dec-16 23:10N 46°31' E 030°58'0 0.0
2014-Dec-16 04:05N 46°31' E 030°58'0 0.0
2014-Dec-16 02:33N 46°31' E 030°58'0 0.0
2014-Dec-15 20:31N 46°31' E 030°58'2 2.4
2014-Dec-15 19:33N 46°28' E 030°57'1111.5
2014-Dec-15 18:33N 46°17' E 030°58'31011.5
2014-Dec-14 15:33N 41°17' E 029°11'  
2014-Dec-12 00:24N 38°18' E 024°52'1010.1
2014-Dec-11 23:22N 38°09' E 024°46'18 9.7
2014-Dec-11 21:33N 37°54' E 024°34'10 9.4
2014-Dec-11 20:33N 37°48' E 024°25'12 9.9
2014-Dec-11 19:21N 37°40' E 024°13'810.0
2014-Dec-11 18:33N 37°36' E 024°05'1111.1
2014-Dec-11 17:33N 37°37' E 023°51'10 9.8
2014-Dec-11 16:33N 37°43' E 023°41'1211.6
2014-Dec-11 15:33N 37°54' E 023°37'8 7.8
2014-Dec-11 14:33N 38°01' E 023°32'1 1.3
2014-Dec-11 13:33N 38°02' E 023°31'0 0.0
2014-Dec-11 12:33N 38°02' E 023°31'0 0.0
2014-Dec-10 08:17N 38°02' E 023°31'2 2.2
2014-Dec-10 07:33N 38°01' E 023°32'0 0.2
2014-Dec-10 06:33N 38°01' E 023°32'0 0.0
2014-Dec-10 05:33N 38°01' E 023°32'0 0.0
2014-Dec-10 04:33N 38°01' E 023°32'0 0.0
2014-Dec-10 03:26N 38°01' E 023°32'0 0.0
2014-Dec-10 02:29N 38°01' E 023°32'0 0.0
2014-Dec-10 01:29N 38°01' E 023°32'0 0.0
2014-Dec-10 00:32N 38°01' E 023°32'0 0.0
2014-Dec-09 23:32N 38°01' E 023°32'0 0.0
2014-Dec-09 22:29N 38°01' E 023°32'0 0.0
2014-Dec-09 21:32N 38°01' E 023°32'0 0.0
2014-Dec-09 20:32N 38°01' E 023°32'0 0.0
2014-Dec-09 19:32N 38°01' E 023°32'0 0.0
2014-Dec-09 18:32N 38°01' E 023°32'0 0.0
2014-Dec-09 17:32N 38°01' E 023°32'0 0.0
2014-Dec-09 16:32N 38°01' E 023°32'0 0.0
2014-Dec-09 15:32N 38°01' E 023°32'0 0.0
2014-Dec-09 14:32N 38°01' E 023°32'0 0.0
2014-Dec-09 13:32N 38°01' E 023°32'0 0.0
2014-Dec-09 12:32N 38°01' E 023°32'0 0.0
2014-Dec-09 11:32N 38°01' E 023°32'0 0.0
2014-Dec-09 10:29N 38°01' E 023°32'0 0.0
2014-Dec-09 09:29N 38°01' E 023°32'0 0.0
2014-Dec-09 08:29N 38°01' E 023°32'0 0.0
2014-Dec-09 07:32N 38°01' E 023°32'0 0.0
2014-Dec-09 06:32N 38°01' E 023°32'0 0.0
2014-Dec-09 05:32N 38°01' E 023°32'0 0.0
2014-Dec-09 04:32N 38°01' E 023°32'0 0.0
2014-Dec-09 03:32N 38°01' E 023°32'0 0.0
2014-Dec-09 02:32N 38°01' E 023°32'0 0.0
2014-Dec-09 01:32N 38°01' E 023°32'0 0.0
2014-Dec-09 00:32N 38°01' E 023°32'0 0.0
2014-Dec-08 23:29N 38°01' E 023°32'0 0.0
2014-Dec-08 22:32N 38°01' E 023°32'0 0.0
2014-Dec-08 21:32N 38°01' E 023°32'0 0.0
2014-Dec-08 20:26N 38°01' E 023°32'0 0.0
2014-Dec-08 19:32N 38°01' E 023°32'0 0.0
2014-Dec-08 18:32N 38°01' E 023°32'0 0.0
2014-Dec-08 17:29N 38°01' E 023°32'0 0.0
2014-Dec-08 16:32N 38°01' E 023°32'0 0.0
2014-Dec-08 15:32N 38°01' E 023°32'0 0.0
2014-Dec-08 14:26N 38°01' E 023°32'0 0.0
2014-Dec-08 13:32N 38°01' E 023°32'0 0.0
2014-Dec-08 12:32N 38°01' E 023°32'0 0.0
2014-Dec-08 11:32N 38°01' E 023°32'0 0.0
2014-Dec-08 10:32N 38°01' E 023°32'0 0.0
2014-Dec-08 09:23N 38°01' E 023°32'0 0.0
2014-Dec-08 08:26N 38°01' E 023°32'0 0.0
2014-Dec-08 07:32N 38°01' E 023°32'  

Dump ship's entire track history